createdAt,value
2019-01-20T06:33:12.609Z,1003.88
2019-01-20T06:34:12.607Z,1003.89
2019-01-20T06:35:12.606Z,1003.96
2019-01-20T06:36:12.604Z,1003.94
2019-01-20T06:37:12.601Z,1004.00
2019-01-20T06:38:12.598Z,1004.00
2019-01-20T06:39:12.596Z,1004.01
2019-01-20T06:40:12.596Z,1004.06
2019-01-20T06:41:12.595Z,1003.99
2019-01-20T06:42:12.593Z,1004.06
2019-01-20T06:43:12.592Z,1004.14
2019-01-20T06:44:12.591Z,1004.17
2019-01-20T06:45:12.591Z,1004.12
2019-01-20T06:46:12.590Z,1004.23
2019-01-20T06:47:12.590Z,1004.22
2019-01-20T06:48:12.586Z,1004.31
2019-01-20T06:49:12.589Z,1004.31
2019-01-20T06:50:12.586Z,1004.34
2019-01-20T06:51:12.589Z,1004.38
2019-01-20T06:52:12.585Z,1004.38
2019-01-20T06:53:12.584Z,1004.40
2019-01-20T06:54:12.582Z,1004.44
2019-01-20T06:55:12.582Z,1004.46
2019-01-20T06:56:12.583Z,1004.45
2019-01-20T06:57:12.579Z,1004.46
2019-01-20T06:58:12.593Z,1004.56
2019-01-20T06:59:12.577Z,1004.48
2019-01-20T07:00:12.595Z,1004.54
2019-01-20T07:01:12.578Z,1004.57
2019-01-20T07:02:12.576Z,1004.60
2019-01-20T07:03:12.576Z,1004.66
2019-01-20T07:04:12.576Z,1004.66
2019-01-20T07:05:12.576Z,1004.69
2019-01-20T07:06:12.573Z,1004.70
2019-01-20T07:07:12.573Z,1004.74
2019-01-20T07:08:12.575Z,1004.77
2019-01-20T07:09:12.572Z,1004.80
2019-01-20T07:10:12.573Z,1004.85
2019-01-20T07:11:12.594Z,1004.84
2019-01-20T07:12:12.570Z,1004.82
2019-01-20T07:13:12.570Z,1004.89
2019-01-20T07:14:12.569Z,1004.91
2019-01-20T07:15:12.568Z,1004.91
2019-01-20T07:16:12.631Z,1004.94
2019-01-20T07:17:12.565Z,1004.99
2019-01-20T07:18:12.565Z,1004.97
2019-01-20T07:19:12.569Z,1005.03
2019-01-20T07:20:12.570Z,1005.06
2019-01-20T07:21:12.564Z,1005.13
2019-01-20T07:22:12.563Z,1005.07
2019-01-20T07:23:12.562Z,1005.17
2019-01-20T07:24:12.563Z,1005.12
2019-01-20T07:25:12.560Z,1005.20
2019-01-20T07:26:12.560Z,1005.28
2019-01-20T07:27:12.560Z,1005.28
2019-01-20T07:28:12.559Z,1005.30
2019-01-20T07:29:12.558Z,1005.33
2019-01-20T07:30:12.558Z,1005.40
2019-01-20T07:31:12.557Z,1005.35
2019-01-20T07:32:12.559Z,1005.42
2019-01-20T07:33:12.556Z,1005.45
2019-01-20T07:34:12.559Z,1005.47
2019-01-20T07:35:12.555Z,1005.49
2019-01-20T07:36:12.554Z,1005.56
2019-01-20T07:37:12.553Z,1005.57
2019-01-20T07:38:12.550Z,1005.68
2019-01-20T07:39:12.550Z,1005.64
2019-01-20T07:40:12.551Z,1005.66
2019-01-20T07:41:12.548Z,1005.68
2019-01-20T07:42:12.544Z,1005.70
2019-01-20T07:43:16.858Z,1005.70
2019-01-20T07:44:12.544Z,1005.79
2019-01-20T07:45:12.548Z,1005.80
2019-01-20T07:46:12.540Z,1005.86
2019-01-20T07:47:12.539Z,1005.94
2019-01-20T07:48:12.542Z,1005.96
2019-01-20T07:49:12.539Z,1005.90
2019-01-20T07:50:12.539Z,1005.85
2019-01-20T07:51:12.536Z,1005.90
2019-01-20T07:52:12.535Z,1005.96
2019-01-20T07:53:12.535Z,1005.90
2019-01-20T07:54:12.547Z,1005.93
2019-01-20T07:55:12.532Z,1005.95
2019-01-20T07:56:12.535Z,1006.00
2019-01-20T07:57:12.528Z,1005.95
2019-01-20T07:58:12.527Z,1005.92
2019-01-20T07:59:12.525Z,1006.01
2019-01-20T08:00:12.525Z,1005.98
2019-01-20T08:01:12.523Z,1005.99
2019-01-20T08:02:12.521Z,1006.01
2019-01-20T08:03:12.520Z,1006.04
2019-01-20T08:04:12.517Z,1006.10
2019-01-20T08:05:12.517Z,1006.08
2019-01-20T08:06:12.516Z,1006.10
2019-01-20T08:07:12.515Z,1006.07
2019-01-20T08:08:12.512Z,1006.14
2019-01-20T08:09:12.528Z,1006.11
2019-01-20T08:10:12.510Z,1006.17
2019-01-20T08:11:12.508Z,1006.17
2019-01-20T08:12:12.507Z,1006.20
2019-01-20T08:13:12.506Z,1006.24
2019-01-20T08:14:12.505Z,1006.21
2019-01-20T08:15:12.504Z,1006.23
2019-01-20T08:16:12.502Z,1006.27
2019-01-20T08:17:12.502Z,1006.28
2019-01-20T08:18:12.498Z,1006.32
2019-01-20T08:19:12.497Z,1006.33
2019-01-20T08:20:12.496Z,1006.37
2019-01-20T08:21:12.495Z,1006.40
2019-01-20T08:22:12.493Z,1006.39
2019-01-20T08:23:12.492Z,1006.38
2019-01-20T08:24:12.489Z,1006.41
2019-01-20T08:25:12.489Z,1006.41
2019-01-20T08:26:12.487Z,1006.44
2019-01-20T08:27:12.486Z,1006.46
2019-01-20T08:28:12.485Z,1006.49
2019-01-20T08:29:12.609Z,1006.49
2019-01-20T08:30:12.483Z,1006.49
2019-01-20T08:31:12.489Z,1006.51
2019-01-20T08:32:12.494Z,1006.51
2019-01-20T08:33:12.478Z,1006.58
2019-01-20T08:34:12.475Z,1006.55
2019-01-20T08:35:12.474Z,1006.57
2019-01-20T08:36:12.476Z,1006.58
2019-01-20T08:37:12.474Z,1006.60
2019-01-20T08:38:12.470Z,1006.61
2019-01-20T08:39:12.469Z,1006.61
2019-01-20T08:40:12.470Z,1006.65
2019-01-20T08:41:12.466Z,1006.63
2019-01-20T08:42:12.465Z,1006.62
2019-01-20T08:43:12.465Z,1006.65
2019-01-20T08:44:12.482Z,1006.66
2019-01-20T08:45:12.461Z,1006.66
2019-01-20T08:46:12.460Z,1006.69
2019-01-20T08:47:12.458Z,1006.65
2019-01-20T08:48:12.456Z,1006.65
2019-01-20T08:49:12.455Z,1006.66
2019-01-20T08:50:12.452Z,1006.72
2019-01-20T08:51:12.452Z,1006.68
2019-01-20T08:52:12.452Z,1006.66
2019-01-20T08:53:12.456Z,1006.72
2019-01-20T08:54:12.447Z,1006.73
2019-01-20T08:55:12.448Z,1006.76
2019-01-20T08:56:12.445Z,1006.72
2019-01-20T08:57:12.444Z,1006.75
2019-01-20T08:58:12.444Z,1006.70
2019-01-20T08:59:12.446Z,1006.67
2019-01-20T09:00:12.441Z,1006.71
2019-01-20T09:01:12.440Z,1006.70
2019-01-20T09:02:12.438Z,1006.75
2019-01-20T09:03:12.435Z,1006.79
2019-01-20T09:04:12.436Z,1006.77
2019-01-20T09:05:12.434Z,1006.80
2019-01-20T09:06:12.434Z,1006.82
2019-01-20T09:07:12.432Z,1006.76
2019-01-20T09:08:12.573Z,1006.77
2019-01-20T09:09:12.430Z,1006.82
2019-01-20T09:10:12.427Z,1006.79
2019-01-20T09:11:12.425Z,1006.78
2019-01-20T09:12:12.425Z,1006.77
2019-01-20T09:13:12.425Z,1006.82
2019-01-20T09:14:12.433Z,1006.86
2019-01-20T09:15:12.421Z,1006.87
2019-01-20T09:16:12.421Z,1006.89
2019-01-20T09:17:12.420Z,1006.88
2019-01-20T09:18:12.416Z,1006.86
2019-01-20T09:19:12.416Z,1006.86
2019-01-20T09:20:12.411Z,1006.86
2019-01-20T09:21:12.409Z,1006.88
2019-01-20T09:22:12.409Z,1006.86
2019-01-20T09:23:12.407Z,1006.86
2019-01-20T09:24:12.406Z,1006.86
2019-01-20T09:25:12.409Z,1006.91
2019-01-20T09:26:12.402Z,1006.86
2019-01-20T09:27:12.401Z,1006.91
2019-01-20T09:28:12.402Z,1006.88
2019-01-20T09:29:12.399Z,1006.92
2019-01-20T09:30:12.396Z,1006.98
2019-01-20T09:31:12.393Z,1006.98
2019-01-20T09:32:12.394Z,1006.97
2019-01-20T09:33:12.390Z,1006.99
2019-01-20T09:34:12.386Z,1006.96
2019-01-20T09:35:12.387Z,1007.00
2019-01-20T09:36:12.382Z,1007.00
2019-01-20T09:37:12.395Z,1007.03
2019-01-20T09:38:12.377Z,1007.04
2019-01-20T09:39:12.376Z,1007.04
2019-01-20T09:40:12.375Z,1007.04
2019-01-20T09:41:12.373Z,1007.07
2019-01-20T09:42:12.371Z,1007.07
2019-01-20T09:43:12.368Z,1007.08
2019-01-20T09:44:12.367Z,1007.10
2019-01-20T09:45:12.365Z,1007.12
2019-01-20T09:46:12.364Z,1007.12
2019-01-20T09:47:12.361Z,1007.10
2019-01-20T09:48:12.360Z,1007.16
2019-01-20T09:49:12.358Z,1007.13
2019-01-20T09:50:12.355Z,1007.13
2019-01-20T09:51:12.353Z,1007.13
2019-01-20T09:52:12.351Z,1007.18
2019-01-20T09:53:12.350Z,1007.21
2019-01-20T09:54:12.347Z,1007.20
2019-01-20T09:55:12.344Z,1007.17
2019-01-20T09:56:12.344Z,1007.17
2019-01-20T09:57:12.343Z,1007.16
2019-01-20T09:58:12.340Z,1007.19
2019-01-20T09:59:12.338Z,1007.22
2019-01-20T10:00:12.339Z,1007.25
2019-01-20T10:01:12.335Z,1007.22
2019-01-20T10:02:12.337Z,1007.22
2019-01-20T10:03:16.277Z,1007.22
2019-01-20T10:04:12.329Z,1007.18
2019-01-20T10:05:12.326Z,1007.20
2019-01-20T10:06:12.324Z,1007.16
2019-01-20T10:07:12.324Z,1007.20
2019-01-20T10:08:12.323Z,1007.23
2019-01-20T10:09:12.322Z,1007.25
2019-01-20T10:10:12.318Z,1007.25
2019-01-20T10:11:12.317Z,1007.22
2019-01-20T10:12:12.315Z,1007.24
2019-01-20T10:13:12.316Z,1007.21
2019-01-20T10:14:12.316Z,1007.23
2019-01-20T10:15:12.312Z,1007.21
2019-01-20T10:16:12.310Z,1007.21
2019-01-20T10:17:12.310Z,1007.18
2019-01-20T10:18:12.307Z,1007.22
2019-01-20T10:19:12.308Z,1007.22
2019-01-20T10:20:12.308Z,1007.20
2019-01-20T10:21:12.309Z,1007.20
2019-01-20T10:22:12.309Z,1007.22
2019-01-20T10:23:12.310Z,1007.24
2019-01-20T10:24:12.307Z,1007.25
2019-01-20T10:25:15.208Z,1007.24
2019-01-20T10:26:12.315Z,1007.24
2019-01-20T10:27:12.312Z,1007.28
2019-01-20T10:28:12.314Z,1007.24
2019-01-20T10:29:12.311Z,1007.30
2019-01-20T10:30:12.309Z,1007.25
2019-01-20T10:31:12.311Z,1007.23
2019-01-20T10:32:12.309Z,1007.31
2019-01-20T10:33:12.310Z,1007.23
2019-01-20T10:34:12.311Z,1007.27
2019-01-20T10:35:12.310Z,1007.27
2019-01-20T10:36:12.310Z,1007.23
2019-01-20T10:37:12.311Z,1007.27
2019-01-20T10:38:12.310Z,1007.26
2019-01-20T10:39:12.310Z,1007.24
2019-01-20T10:40:12.311Z,1007.22
2019-01-20T10:41:12.314Z,1007.27
2019-01-20T10:42:12.313Z,1007.32
2019-01-20T10:43:12.311Z,1007.31
2019-01-20T10:44:12.311Z,1007.33
2019-01-20T10:45:12.312Z,1007.32
2019-01-20T11:38:39.165Z,1007.75
2019-01-20T11:39:39.165Z,1007.73
2019-01-20T11:40:39.162Z,1007.76
2019-01-20T11:41:39.168Z,1007.76
2019-01-20T11:42:39.208Z,1007.76
2019-01-20T11:43:39.163Z,1007.78
2019-01-20T11:44:39.164Z,1007.85
2019-01-20T11:45:39.168Z,1007.81
2019-01-20T11:46:39.166Z,1008.13
2019-01-20T11:47:41.999Z,1007.92
2019-01-20T11:48:39.169Z,1007.87
2019-01-20T11:49:39.170Z,1007.85
2019-01-20T11:50:39.172Z,1007.86
2019-01-20T11:51:39.174Z,1007.81
2019-01-20T11:52:39.174Z,1007.81
2019-01-20T11:53:39.176Z,1007.83
2019-01-20T11:54:39.179Z,1007.86
2019-01-20T11:55:39.179Z,1007.86
2019-01-20T11:56:39.180Z,1007.83
2019-01-20T11:57:39.180Z,1007.82
2019-01-20T11:58:39.183Z,1007.86
2019-01-20T11:59:39.184Z,1007.96
2019-01-20T12:00:39.184Z,1007.94
2019-01-20T12:01:39.187Z,1007.92
2019-01-20T12:02:39.186Z,1007.93
2019-01-20T12:03:39.189Z,1007.91
2019-01-20T12:04:39.188Z,1007.95
2019-01-20T12:05:39.190Z,1007.94
2019-01-20T12:06:39.192Z,1007.94
2019-01-20T12:07:39.192Z,1007.96
2019-01-20T12:08:39.194Z,1007.97
2019-01-20T12:09:39.193Z,1007.97
2019-01-20T12:10:39.195Z,1008.01
2019-01-20T12:11:39.195Z,1008.02
2019-01-20T12:12:39.196Z,1008.07
2019-01-20T12:13:39.238Z,1008.07
2019-01-20T12:14:39.198Z,1008.11
2019-01-20T12:15:39.199Z,1008.08
2019-01-20T12:16:39.197Z,1008.10
2019-01-20T12:17:39.200Z,1008.07
2019-01-20T12:18:39.199Z,1008.03
2019-01-20T12:19:39.199Z,1008.12
2019-01-20T12:20:39.200Z,1008.08
2019-01-20T12:21:39.201Z,1008.11
2019-01-20T12:22:39.206Z,1008.10
2019-01-20T12:23:39.202Z,1008.14
2019-01-20T12:24:39.203Z,1008.15
2019-01-20T12:25:39.203Z,1008.12
2019-01-20T12:26:39.202Z,1008.15
2019-01-20T12:27:39.204Z,1008.15
2019-01-20T12:28:39.254Z,1008.18
2019-01-20T12:29:39.204Z,1008.17
2019-01-20T12:30:39.203Z,1008.16
2019-01-20T12:31:39.204Z,1008.15
2019-01-20T12:32:39.206Z,1008.24
2019-01-20T12:33:39.204Z,1008.22
2019-01-20T12:34:39.205Z,1008.18
2019-01-20T12:35:39.206Z,1008.24
2019-01-20T12:36:39.208Z,1008.27
2019-01-20T12:37:39.207Z,1008.26
2019-01-20T12:38:39.297Z,1008.26
2019-01-20T12:39:39.207Z,1008.29
2019-01-20T12:40:39.207Z,1008.23
2019-01-20T12:41:39.210Z,1008.30
2019-01-20T12:42:39.208Z,1008.34
2019-01-20T12:43:39.209Z,1008.35
2019-01-20T12:44:39.208Z,1008.24
2019-01-20T12:45:39.208Z,1008.40
2019-01-20T12:46:39.208Z,1008.40
2019-01-20T12:47:39.209Z,1008.32
2019-01-20T12:48:39.208Z,1008.33
2019-01-20T12:49:39.209Z,1008.38
2019-01-20T12:50:39.208Z,1008.37
2019-01-20T12:51:39.209Z,1008.33
2019-01-20T12:52:39.209Z,1008.37
2019-01-20T12:53:39.209Z,1008.39
2019-01-20T12:54:39.210Z,1008.35
2019-01-20T12:55:39.209Z,1008.36
2019-01-20T12:56:39.208Z,1008.41
2019-01-20T12:57:39.209Z,1008.36
2019-01-20T12:58:39.208Z,1008.36
2019-01-20T12:59:39.209Z,1008.36
2019-01-20T13:00:39.210Z,1008.32
2019-01-20T13:01:39.208Z,1008.30
2019-01-20T13:02:39.209Z,1008.37
2019-01-20T13:15:48.732Z,1008.44
2019-01-20T13:16:48.722Z,1008.38
2019-01-20T13:17:48.726Z,1008.43
2019-01-20T13:18:48.720Z,1008.41
2019-01-20T13:19:48.721Z,1008.44
2019-01-20T13:20:48.719Z,1008.42
2019-01-20T13:21:48.721Z,1008.44
2019-01-20T13:22:48.733Z,1008.44
2019-01-20T13:23:48.724Z,1008.47
2019-01-20T13:24:48.727Z,1008.46
2019-01-20T13:25:48.729Z,1008.48
2019-01-20T13:26:48.732Z,1008.48
2019-01-20T13:27:48.746Z,1008.48
2019-01-20T13:28:48.739Z,1008.50
2019-01-20T13:29:48.747Z,1008.51
2019-01-20T13:30:48.744Z,1008.55
2019-01-20T13:31:48.749Z,1008.61
2019-01-20T13:32:48.752Z,1008.64
2019-01-20T13:33:48.757Z,1008.64
2019-01-20T13:34:48.761Z,1008.67
2019-01-20T13:35:48.763Z,1008.67
2019-01-20T13:36:48.769Z,1008.66
2019-01-20T13:37:48.774Z,1008.68
2019-01-20T13:38:48.777Z,1008.68
2019-01-20T13:39:48.780Z,1008.72
2019-01-20T13:40:48.785Z,1008.69
2019-01-20T13:41:48.792Z,1008.65
2019-01-20T13:42:48.793Z,1008.68
2019-01-20T13:43:48.799Z,1008.71
2019-01-20T13:44:48.802Z,1008.71
2019-01-20T13:45:48.807Z,1008.73
2019-01-20T13:46:48.812Z,1008.71
2019-01-20T13:47:49.117Z,1008.75
2019-01-20T13:48:48.821Z,1008.71
2019-01-20T13:49:48.825Z,1008.73
2019-01-20T13:50:48.831Z,1008.75
2019-01-20T13:51:48.835Z,1008.73
2019-01-20T13:52:48.840Z,1008.73
2019-01-20T13:53:48.844Z,1008.73
2019-01-20T13:54:48.850Z,1008.74
2019-01-20T13:55:48.854Z,1008.74
2019-01-20T13:56:48.857Z,1008.75
2019-01-20T13:57:48.863Z,1008.78
2019-01-20T13:58:48.868Z,1008.80
2019-01-20T13:59:48.872Z,1008.83
2019-01-20T14:00:49.740Z,1008.81
2019-01-20T14:01:48.884Z,1008.81
2019-01-20T14:02:48.888Z,1008.82
2019-01-20T14:03:48.893Z,1008.88
2019-01-20T14:04:48.907Z,1008.85
2019-01-20T14:05:48.901Z,1008.89
2019-01-20T14:06:48.907Z,1008.90
2019-01-20T14:07:48.915Z,1008.91
2019-01-20T14:08:48.916Z,1008.88
2019-01-20T14:09:48.922Z,1008.89
2019-01-20T14:10:49.050Z,1008.89
2019-01-20T14:11:48.946Z,1008.92
2019-01-20T14:12:48.937Z,1008.89
2019-01-20T14:13:48.942Z,1008.84
2019-01-20T14:14:53.912Z,1008.89
2019-01-20T14:15:48.954Z,1008.84
2019-01-20T14:16:48.956Z,1008.87
2019-01-20T14:17:48.961Z,1008.89
2019-01-20T14:18:48.966Z,1008.89
2019-01-20T14:19:48.973Z,1008.91
2019-01-20T14:20:48.976Z,1008.91
2019-01-20T14:21:48.983Z,1008.90
2019-01-20T14:22:48.987Z,1008.91
2019-01-20T14:23:48.992Z,1008.86
2019-01-20T14:24:48.996Z,1008.89
2019-01-20T14:25:49.001Z,1008.87
2019-01-20T14:26:49.008Z,1008.89
2019-01-20T14:27:49.013Z,1008.92
2019-01-20T14:28:49.017Z,1008.91
2019-01-20T14:29:49.021Z,1008.88
2019-01-20T14:30:49.027Z,1008.92
2019-01-20T14:31:49.034Z,1008.85
2019-01-20T14:32:49.037Z,1008.88
2019-01-20T14:33:49.042Z,1008.85
2019-01-20T14:34:49.047Z,1008.90
2019-01-20T14:35:49.053Z,1008.91
2019-01-20T14:36:49.057Z,1008.89
2019-01-20T14:37:49.063Z,1008.88
2019-01-20T14:38:49.069Z,1008.88
2019-01-20T14:39:49.075Z,1008.90
2019-01-20T14:40:49.076Z,1008.89
2019-01-20T14:41:49.081Z,1008.91
2019-01-20T14:42:49.091Z,1008.90
2019-01-20T14:43:49.094Z,1008.92
2019-01-20T14:44:49.099Z,1008.94
2019-01-20T14:45:49.103Z,1008.95
2019-01-20T14:46:49.109Z,1008.94
2019-01-20T14:47:49.116Z,1008.91
2019-01-20T14:48:49.119Z,1008.94
2019-01-20T14:49:49.124Z,1008.94
2019-01-20T14:50:49.130Z,1008.90
2019-01-20T14:51:49.135Z,1008.91
2019-01-20T14:52:49.140Z,1008.91
2019-01-20T14:53:49.145Z,1008.89
2019-01-20T14:54:49.180Z,1008.92
2019-01-20T14:55:49.160Z,1008.93
2019-01-20T14:56:49.167Z,1008.93
2019-01-20T14:57:49.167Z,1008.95
2019-01-20T14:58:49.172Z,1008.93
2019-01-20T14:59:49.180Z,1008.92
2019-01-20T15:00:49.197Z,1008.96
2019-01-20T15:01:49.186Z,1008.94
2019-01-20T15:02:49.194Z,1009.00
2019-01-20T15:03:49.198Z,1008.98
2019-01-20T15:04:49.209Z,1008.96
2019-01-20T15:05:49.210Z,1008.95
2019-01-20T15:06:49.215Z,1008.96
2019-01-20T15:07:49.221Z,1008.99
2019-01-20T15:09:49.234Z,1008.99
2019-01-20T15:10:49.238Z,1009.00
2019-01-20T15:11:49.247Z,1009.00
2019-01-20T15:12:50.270Z,1009.00
2019-01-20T15:13:49.254Z,1009.01
2019-01-20T15:14:49.261Z,1008.99
2019-01-20T15:15:49.266Z,1009.06
2019-01-20T15:16:49.270Z,1009.08
2019-01-20T15:17:49.275Z,1009.02
2019-01-20T15:18:49.281Z,1009.03
2019-01-20T15:19:49.288Z,1009.07
2019-01-20T15:20:49.291Z,1009.03
2019-01-20T15:21:49.298Z,1009.04
2019-01-20T15:22:49.303Z,1009.06
2019-01-20T15:23:49.342Z,1009.06
2019-01-20T15:24:49.314Z,1009.07
2019-01-20T15:25:49.318Z,1009.02
2019-01-20T15:26:49.324Z,1009.06
2019-01-20T15:27:49.330Z,1009.05
2019-01-20T15:28:49.336Z,1009.08
2019-01-20T15:29:49.345Z,1009.08
2019-01-20T15:30:49.347Z,1009.10
2019-01-20T15:31:49.353Z,1009.12
2019-01-20T15:32:49.357Z,1009.14
2019-01-20T15:33:49.365Z,1009.14
2019-01-20T15:34:49.373Z,1009.12
2019-01-20T15:35:49.375Z,1009.14
2019-01-20T15:36:49.380Z,1009.17
2019-01-20T15:37:49.385Z,1009.18
2019-01-20T15:38:49.391Z,1009.19
2019-01-20T15:39:49.397Z,1009.17
2019-01-20T15:40:49.401Z,1009.18
2019-01-20T15:41:49.408Z,1009.17
2019-01-20T15:42:49.413Z,1009.16
2019-01-20T15:43:49.487Z,1009.15
2019-01-20T15:44:49.424Z,1009.23
2019-01-20T15:45:49.429Z,1009.24
2019-01-20T15:46:49.436Z,1009.20
2019-01-20T15:47:49.441Z,1009.25
2019-01-20T15:48:49.447Z,1009.26
2019-01-20T15:49:49.450Z,1009.25
2019-01-20T15:50:49.455Z,1009.25
2019-01-20T15:51:49.464Z,1009.24
2019-01-20T15:52:49.466Z,1009.29
2019-01-20T15:53:49.474Z,1009.26
2019-01-20T15:54:49.478Z,1009.27
2019-01-20T15:55:49.483Z,1009.29
2019-01-20T15:56:49.487Z,1009.24
2019-01-20T15:57:49.494Z,1009.29
2019-01-20T15:58:49.499Z,1009.26
2019-01-20T15:59:49.505Z,1009.25
2019-01-20T16:00:49.509Z,1009.24
2019-01-20T16:01:49.515Z,1009.25
2019-01-20T16:02:49.519Z,1009.28
2019-01-20T16:03:49.525Z,1009.24
2019-01-20T16:04:49.530Z,1009.22
2019-01-20T16:05:49.535Z,1009.23
2019-01-20T16:06:49.541Z,1009.22
2019-01-20T16:07:49.550Z,1009.20
2019-01-20T16:08:49.551Z,1009.20
2019-01-20T16:09:49.559Z,1009.23
2019-01-20T16:10:49.560Z,1009.20
2019-01-20T16:11:49.569Z,1009.19
2019-01-20T16:12:49.572Z,1009.20
2019-01-20T16:13:49.577Z,1009.15
2019-01-20T16:14:49.583Z,1009.17
2019-01-20T16:15:49.588Z,1009.17
2019-01-20T16:16:49.592Z,1009.17
2019-01-20T16:17:49.598Z,1009.18
2019-01-20T16:18:49.604Z,1009.16
2019-01-20T16:19:49.609Z,1009.18
2019-01-20T16:20:49.613Z,1009.22
2019-01-20T16:21:49.619Z,1009.28
2019-01-20T16:22:49.625Z,1009.26
2019-01-20T16:23:49.631Z,1009.29
2019-01-20T16:24:49.635Z,1009.33
2019-01-20T16:25:49.642Z,1009.33
2019-01-20T16:26:49.647Z,1009.31
2019-01-20T16:27:49.657Z,1009.37
2019-01-20T16:28:49.659Z,1009.31
2019-01-20T16:29:49.663Z,1009.30
2019-01-20T16:30:49.667Z,1009.29
2019-01-20T16:31:49.673Z,1009.33
2019-01-20T16:32:49.677Z,1009.32
2019-01-20T16:33:49.681Z,1009.30
2019-01-20T16:34:49.688Z,1009.35
2019-01-20T16:35:49.695Z,1009.32
2019-01-20T16:36:49.698Z,1009.33
2019-01-20T16:37:49.703Z,1009.33
2019-01-20T16:38:49.715Z,1009.37
2019-01-20T16:39:49.724Z,1009.37
2019-01-20T16:40:49.718Z,1009.39
2019-01-20T16:41:49.730Z,1009.43
2019-01-20T16:42:49.734Z,1009.39
2019-01-20T16:43:49.746Z,1009.41
2019-01-20T16:44:49.742Z,1009.40
2019-01-20T16:45:49.749Z,1009.41
2019-01-20T16:46:49.753Z,1009.38
2019-01-20T16:47:49.756Z,1009.44
2019-01-20T16:48:49.762Z,1009.40
2019-01-20T16:49:49.767Z,1009.40
2019-01-20T16:50:49.774Z,1009.40
2019-01-20T16:51:49.777Z,1009.42
2019-01-20T16:52:54.582Z,1009.42
2019-01-20T16:53:49.787Z,1009.43
2019-01-20T16:54:49.794Z,1009.39
2019-01-20T16:55:49.799Z,1009.38
2019-01-20T16:56:49.807Z,1009.40
2019-01-20T16:57:49.857Z,1009.41
2019-01-20T16:58:51.413Z,1009.42
2019-01-20T16:59:49.820Z,1009.41
2019-01-20T17:00:49.824Z,1009.40
2019-01-20T17:01:49.830Z,1009.38
2019-01-20T17:02:49.836Z,1009.41
2019-01-20T17:03:49.843Z,1009.40
2019-01-20T17:04:49.845Z,1009.42
2019-01-20T17:05:49.851Z,1009.43
2019-01-20T17:06:49.857Z,1009.40
2019-01-20T17:07:49.861Z,1009.39
2019-01-20T17:08:49.865Z,1009.44
2019-01-20T17:09:49.872Z,1009.43
2019-01-20T17:10:49.878Z,1009.45
2019-01-20T17:11:49.883Z,1009.46
2019-01-20T17:12:49.887Z,1009.49
2019-01-20T17:13:49.893Z,1009.53
2019-01-20T17:14:49.897Z,1009.48
2019-01-20T17:15:49.903Z,1009.52
2019-01-20T17:16:49.909Z,1009.53
2019-01-20T17:17:49.914Z,1009.52
2019-01-20T17:18:49.923Z,1009.54
2019-01-20T17:19:49.927Z,1009.53
2019-01-20T17:20:49.929Z,1009.54
2019-01-20T17:21:49.935Z,1009.59
2019-01-20T17:22:49.941Z,1009.57
2019-01-20T17:23:49.946Z,1009.57
2019-01-20T17:24:49.953Z,1009.58
2019-01-20T17:25:49.956Z,1009.60
2019-01-20T17:26:49.961Z,1009.57
2019-01-20T17:27:49.967Z,1009.63
2019-01-20T17:28:49.973Z,1009.59
2019-01-20T17:29:49.978Z,1009.62
2019-01-20T17:30:49.983Z,1009.63
2019-01-20T17:31:49.990Z,1009.63
2019-01-20T17:32:49.994Z,1009.66
2019-01-20T17:33:49.999Z,1009.65
2019-01-20T17:34:50.005Z,1009.63
2019-01-20T17:35:50.012Z,1009.63
2019-01-20T17:36:50.015Z,1009.66
2019-01-20T17:37:50.022Z,1009.67
2019-01-20T17:38:50.027Z,1009.62
2019-01-20T17:39:50.032Z,1009.63
2019-01-20T17:40:50.038Z,1009.62
2019-01-20T17:41:50.041Z,1009.67
2019-01-20T17:42:50.048Z,1009.65
2019-01-20T17:43:50.054Z,1009.62
2019-01-20T17:44:50.058Z,1009.62
2019-01-20T17:45:50.134Z,1009.61
2019-01-20T17:46:50.068Z,1009.64
2019-01-20T17:47:50.073Z,1009.68
2019-01-20T17:48:50.079Z,1009.68
2019-01-20T17:49:50.085Z,1009.63
2019-01-20T17:50:50.092Z,1009.67
2019-01-20T17:51:50.094Z,1009.70
2019-01-20T17:52:50.103Z,1009.69
2019-01-20T17:53:50.107Z,1009.69
2019-01-20T17:54:50.109Z,1009.70
2019-01-20T17:55:50.117Z,1009.66
2019-01-20T17:56:50.121Z,1009.71
2019-01-20T17:57:50.132Z,1009.72
2019-01-20T17:58:50.132Z,1009.70
2019-01-20T17:59:50.137Z,1009.72
2019-01-20T18:00:50.140Z,1009.75
2019-01-20T18:01:50.146Z,1009.78
2019-01-20T18:02:50.151Z,1009.77
2019-01-20T18:03:50.157Z,1009.69
2019-01-20T18:04:50.162Z,1009.74
2019-01-20T18:05:50.168Z,1009.78
2019-01-20T18:06:50.173Z,1009.73
2019-01-20T18:07:50.177Z,1009.74
2019-01-20T18:08:50.188Z,1009.76
2019-01-20T18:09:50.190Z,1009.75
2019-01-20T18:10:50.194Z,1009.79
2019-01-20T18:11:50.200Z,1009.76
2019-01-20T18:12:50.204Z,1009.81
2019-01-20T18:13:50.211Z,1009.77
2019-01-20T18:14:50.217Z,1009.75
2019-01-20T18:15:54.299Z,1009.78
2019-01-20T18:16:50.227Z,1009.77
2019-01-20T18:17:50.231Z,1009.77
2019-01-20T18:18:50.237Z,1009.83
2019-01-20T18:19:50.291Z,1009.81
2019-01-20T18:20:50.247Z,1009.83
2019-01-20T18:21:50.253Z,1009.82
2019-01-20T18:22:50.258Z,1009.78
2019-01-20T18:23:50.320Z,1009.84
2019-01-20T18:24:50.268Z,1009.85
2019-01-20T18:25:50.273Z,1009.87
2019-01-20T18:26:50.278Z,1009.83
2019-01-20T18:27:50.286Z,1009.88
2019-01-20T18:28:50.289Z,1009.89
2019-01-20T18:29:50.295Z,1009.89
2019-01-20T18:30:50.300Z,1009.88
2019-01-20T18:31:50.306Z,1009.89
2019-01-20T18:32:50.324Z,1009.89
2019-01-20T18:33:50.367Z,1009.89
2019-01-20T18:34:50.323Z,1009.91
2019-01-20T18:35:50.327Z,1009.91
2019-01-20T18:36:50.333Z,1009.93
2019-01-20T18:37:50.337Z,1009.94
2019-01-20T18:38:50.341Z,1009.97
2019-01-20T18:39:50.348Z,1009.96
2019-01-20T18:40:50.353Z,1010.02
2019-01-20T18:41:50.356Z,1010.03
2019-01-20T18:42:50.363Z,1010.05
2019-01-20T18:43:50.367Z,1010.01
2019-01-20T18:44:50.372Z,1010.02
2019-01-20T18:45:50.379Z,1010.01
2019-01-20T18:46:50.383Z,1010.03
2019-01-20T18:47:50.387Z,1010.02
2019-01-20T18:48:50.392Z,1010.07
2019-01-20T18:49:50.399Z,1010.05
2019-01-20T18:50:50.407Z,1010.07
2019-01-20T18:51:50.409Z,1010.05
2019-01-20T18:52:50.412Z,1010.08
2019-01-20T18:53:50.421Z,1010.10
2019-01-20T18:54:50.425Z,1010.11
2019-01-20T18:55:50.430Z,1010.08
2019-01-20T18:56:50.434Z,1010.06
2019-01-20T18:57:50.442Z,1010.13
2019-01-20T18:58:50.444Z,1010.09
2019-01-20T18:59:50.452Z,1010.10
2019-01-20T19:00:50.460Z,1010.11
2019-01-20T19:01:50.459Z,1010.13
2019-01-20T19:02:50.465Z,1010.14
2019-01-20T19:03:50.472Z,1010.16
2019-01-20T19:04:50.476Z,1010.11
2019-01-20T19:05:50.481Z,1010.12
2019-01-20T19:06:50.486Z,1010.13
2019-01-20T19:07:55.373Z,1010.10
2019-01-20T19:08:50.497Z,1010.16
2019-01-20T19:09:50.500Z,1010.18
2019-01-20T19:10:50.508Z,1010.14
2019-01-20T19:11:50.517Z,1010.18
2019-01-20T19:12:50.517Z,1010.15
2019-01-20T19:13:50.522Z,1010.16
2019-01-20T19:14:50.528Z,1010.17
2019-01-20T19:15:50.533Z,1010.22
2019-01-20T19:16:50.540Z,1010.20
2019-01-20T19:17:50.544Z,1010.20
2019-01-20T19:18:50.553Z,1010.18
2019-01-20T19:19:50.557Z,1010.20
2019-01-20T19:20:50.559Z,1010.27
2019-01-20T19:21:50.565Z,1010.26
2019-01-20T19:22:50.570Z,1010.25
2019-01-20T19:23:50.575Z,1010.26
2019-01-20T19:24:50.582Z,1010.26
2019-01-20T19:25:50.585Z,1010.31
2019-01-20T19:26:50.590Z,1010.29
2019-01-20T19:27:50.599Z,1010.28
2019-01-20T19:28:50.599Z,1010.31
2019-01-20T19:29:50.609Z,1010.31
2019-01-20T19:30:50.611Z,1010.32
2019-01-20T19:31:50.619Z,1010.28
2019-01-20T19:32:50.620Z,1010.28
2019-01-20T19:33:50.626Z,1010.33
2019-01-20T19:34:50.697Z,1010.33
2019-01-20T19:35:50.806Z,1010.35
2019-01-20T19:36:50.643Z,1010.35
2019-01-20T19:37:50.648Z,1010.36
2019-01-20T19:38:50.653Z,1010.36
2019-01-20T19:39:50.835Z,1010.36
2019-01-20T19:40:50.665Z,1010.35
2019-01-20T19:41:50.670Z,1010.34
2019-01-20T19:42:50.674Z,1010.35
2019-01-20T19:43:50.679Z,1010.38